Time;durP1;ratioP1;P1;durP2;ratioP2;P2;SDS_P1;SDS_P2;PMS_P1;PMS_P2;Temp;Humidity;BMP_temperature;BMP_pressure;BME280_temperature;BME280_humidity;BME280_pressure;Samples;Min_cycle;Max_cycle;Signal;HPM_P1;HPM_P2
2021/03/06 00:00:18;;;;;;;11.60;4.92;;;;;;;-0.44;77.13;102479.60;1739282;82;21889;-86
2021/03/06 00:02:53;;;;;;;10.43;4.05;;;;;;;-0.51;77.58;102482.74;1736776;81;21575;-86
2021/03/06 00:05:23;;;;;;;9.60;4.00;;;;;;;-0.52;77.96;102487.41;1739316;81;21169;-85
2021/03/06 00:07:50;;;;;;;12.33;4.47;;;;;;;-0.54;78.16;102488.54;1739216;82;21216;-85
2021/03/06 00:10:21;;;;;;;11.95;5.08;;;;;;;-0.54;78.19;102483.37;1739353;81;21620;-85
2021/03/06 00:12:49;;;;;;;12.07;6.53;;;;;;;-0.56;78.24;102486.55;1739223;82;21894;-83
2021/03/06 00:15:24;;;;;;;18.50;7.83;;;;;;;-0.59;78.27;102491.05;1739148;81;21200;-84
2021/03/06 00:17:51;;;;;;;16.32;8.23;;;;;;;-0.62;78.20;102482.62;1742213;81;21214;-84
2021/03/06 00:20:18;;;;;;;22.02;10.32;;;;;;;-0.66;78.10;102472.75;1723216;82;21180;-84
2021/03/06 00:22:49;;;;;;;18.82;9.43;;;;;;;-0.71;78.00;102479.13;1743552;80;21188;-84
2021/03/06 00:25:23;;;;;;;21.82;8.68;;;;;;;-0.79;78.02;102478.39;1739254;82;21965;-84
2021/03/06 00:27:50;;;;;;;18.57;8.98;;;;;;;-0.86;78.02;102473.37;1739331;82;21232;-84
2021/03/06 00:30:19;;;;;;;21.42;9.10;;;;;;;-0.94;78.08;102474.66;1739206;82;21162;-84
2021/03/06 00:32:46;;;;;;;22.65;9.35;;;;;;;-1.02;78.17;102476.48;1739198;82;21157;-84
2021/03/06 00:35:14;;;;;;;24.98;9.63;;;;;;;-1.06;78.32;102480.82;1739402;82;21172;-84
2021/03/06 00:37:41;;;;;;;21.02;9.60;;;;;;;-1.09;78.49;102483.09;1739392;81;21954;-84
2021/03/06 00:40:23;;;;;;;22.35;9.95;;;;;;;-1.10;78.60;102482.58;1762618;81;21178;-84
2021/03/06 00:42:58;;;;;;;20.25;8.88;;;;;;;-1.14;78.55;102475.28;1762029;80;21574;-83
2021/03/06 00:45:25;;;;;;;19.75;9.03;;;;;;;-1.21;78.50;102477.23;1779352;80;21160;-84
2021/03/06 00:47:52;;;;;;;19.92;9.20;;;;;;;-1.25;78.56;102480.66;1779451;80;21181;-84
2021/03/06 00:50:33;;;;;;;17.73;8.00;;;;;;;-1.31;78.62;102477.09;1779258;80;21892;-83
2021/03/06 00:53:04;;;;;;;19.10;8.08;;;;;;;-1.37;78.72;102477.37;1779121;80;21523;-83
2021/03/06 00:55:40;;;;;;;16.57;7.35;;;;;;;-1.39;78.79;102468.56;1785884;79;22777;-82
2021/03/06 00:58:07;;;;;;;15.98;7.33;;;;;;;-1.49;78.89;102468.38;1751464;81;21155;-84
2021/03/06 01:00:34;;;;;;;12.53;6.03;;;;;;;-1.53;79.09;102468.84;1751247;81;21884;-82
2021/03/06 01:03:11;;;;;;;15.45;6.58;;;;;;;-1.57;79.24;102470.58;1751504;80;21093;-82
2021/03/06 01:05:42;;;;;;;14.83;5.75;;;;;;;-1.61;79.34;102469.36;1751488;81;21590;-81
2021/03/06 01:08:09;;;;;;;11.57;5.83;;;;;;;-1.63;79.51;102469.97;1751356;81;21153;-81
2021/03/06 01:10:41;;;;;;;13.55;5.08;;;;;;;-1.66;79.59;102467.06;1726949;81;21195;-81
2021/03/06 01:13:08;;;;;;;12.18;5.60;;;;;;;-1.70;79.72;102464.94;1721419;83;21811;-83
2021/03/06 01:15:44;;;;;;;12.88;5.97;;;;;;;-1.75;79.80;102468.32;1721326;83;21149;-82
2021/03/06 01:18:19;;;;;;;12.88;6.17;;;;;;;-1.79;80.00;102464.52;1695797;84;21654;-83
2021/03/06 01:20:46;;;;;;;16.50;6.37;;;;;;;-1.82;80.18;102461.64;1696512;84;21171;-83
2021/03/06 01:23:14;;;;;;;13.55;7.35;;;;;;;-1.85;80.34;102462.99;1721573;82;21187;-83
2021/03/06 01:25:41;;;;;;;14.05;7.00;;;;;;;-1.88;80.39;102462.28;1721396;83;21837;-83
2021/03/06 01:28:08;;;;;;;14.30;8.05;;;;;;;-1.89;80.52;102463.05;1721282;83;21721;-83
2021/03/06 01:30:36;;;;;;;15.10;7.12;;;;;;;-1.92;80.55;102461.44;1721520;83;21180;-83
2021/03/06 01:33:04;;;;;;;17.23;6.58;;;;;;;-1.94;80.57;102459.47;1721353;83;21168;-83
2021/03/06 01:35:32;;;;;;;10.43;5.62;;;;;;;-1.98;80.74;102459.52;1721374;83;21654;-83
2021/03/06 01:37:59;;;;;;;15.83;5.72;;;;;;;-2.00;80.82;102455.49;1721410;83;21912;-83
2021/03/06 01:43:17;;;;;;;10.05;4.85;;;;;;;-1.98;80.99;102456.95;1810907;78;22773;-81
2021/03/06 01:45:44;;;;;;;10.70;5.70;;;;;;;-2.04;81.02;102455.03;1796860;79;22226;-81
2021/03/06 01:48:11;;;;;;;11.33;5.72;;;;;;;-2.05;81.04;102459.64;1796678;79;22792;-82
2021/03/06 01:50:44;;;;;;;11.85;5.90;;;;;;;-2.06;81.14;102462.61;1796477;79;21191;-83
2021/03/06 01:53:13;;;;;;;12.93;6.00;;;;;;;-2.07;81.14;102462.06;1796727;79;21183;-82
2021/03/06 01:55:45;;;;;;;12.75;6.03;;;;;;;-2.11;81.16;102459.92;1796541;79;21211;-82
2021/03/06 01:58:21;;;;;;;12.07;5.03;;;;;;;-2.13;81.16;102455.38;1796797;79;21662;-84
2021/03/06 02:00:50;;;;;;;12.80;5.20;;;;;;;-2.17;81.18;102452.85;1796619;79;21808;-83
2021/03/06 02:03:17;;;;;;;11.30;4.90;;;;;;;-2.19;81.24;102458.23;1796667;79;21226;-83
2021/03/06 02:05:44;;;;;;;12.37;5.15;;;;;;;-2.21;81.26;102459.36;1796633;79;21207;-82
2021/03/06 02:08:12;;;;;;;12.80;5.00;;;;;;;-2.21;81.29;102454.59;1761099;79;21223;-82
2021/03/06 02:10:42;;;;;;;16.82;5.15;;;;;;;-2.22;81.31;102450.17;1782122;80;21214;-82
2021/03/06 02:13:22;;;;;;;10.23;4.28;;;;;;;-2.25;81.30;102449.48;1788351;80;21957;-82
2021/03/06 02:16:01;;;;;;;13.18;5.08;;;;;;;-2.27;81.35;102444.55;1788294;80;21172;-83
2021/03/06 02:18:33;;;;;;;12.73;5.55;;;;;;;-2.29;81.40;102443.48;1787750;80;21673;-83
2021/03/06 02:21:07;;;;;;;18.23;5.72;;;;;;;-2.31;81.36;102444.95;1771544;80;21598;-82
2021/03/06 02:24:01;;;;;;;11.35;5.10;;;;;;;-2.33;81.39;102440.41;1787534;80;21192;-82
2021/03/06 02:26:39;;;;;;;12.53;5.15;;;;;;;-2.36;81.39;102443.20;1788207;80;21890;-82
2021/03/06 02:29:42;;;;;;;11.60;5.10;;;;;;;-2.36;81.46;102437.14;1690261;84;21679;-82
2021/03/06 02:35:12;;;;;;;11.83;4.87;;;;;;;-2.36;81.42;102434.56;1852249;76;29619;-90
2021/03/06 02:37:43;;;;;;;10.28;4.30;;;;;;;-2.43;81.44;102433.00;1817566;78;21148;-83
2021/03/06 02:43:52;;;;;;;12.30;4.40;;;;;;;-2.46;81.46;102433.05;1822002;78;21164;-83
2021/03/06 02:46:22;;;;;;;11.33;4.97;;;;;;;-2.50;81.48;102430.53;1820353;78;21594;-84
2021/03/06 02:48:51;;;;;;;10.68;4.70;;;;;;;-2.52;81.41;102432.04;1789619;80;21151;-83
2021/03/06 02:51:19;;;;;;;8.65;4.35;;;;;;;-2.52;81.50;102438.88;1790118;79;21590;-90
2021/03/06 02:53:46;;;;;;;11.78;4.75;;;;;;;-2.54;81.45;102434.45;1790210;79;21889;-89
2021/03/06 02:56:13;;;;;;;14.70;5.65;;;;;;;-2.55;81.48;102436.52;1790174;80;21156;-86
2021/03/06 02:59:10;;;;;;;14.85;5.97;;;;;;;-2.58;81.45;102428.83;1790027;80;21331;-84
2021/03/06 03:01:56;;;;;;;14.68;6.65;;;;;;;-2.59;81.42;102426.64;1789687;80;21572;-83
2021/03/06 03:04:49;;;;;;;14.87;6.87;;;;;;;-2.60;81.40;102426.08;1788996;80;21574;-84
2021/03/06 03:07:24;;;;;;;12.18;6.70;;;;;;;-2.63;81.34;102427.08;1789904;79;21966;-85
2021/03/06 03:09:53;;;;;;;15.43;6.72;;;;;;;-2.65;81.38;102418.23;1789882;80;21170;-84
2021/03/06 03:12:23;;;;;;;8.25;4.87;;;;;;;-2.67;81.46;102423.61;1789753;79;21167;-84
2021/03/06 03:15:04;;;;;;;10.15;5.45;;;;;;;-2.69;81.46;102421.25;1789559;79;21163;-85
2021/03/06 03:17:46;;;;;;;9.70;4.92;;;;;;;-2.69;81.47;102422.54;1789750;80;21123;-83
2021/03/06 03:20:35;;;;;;;11.48;5.45;;;;;;;-2.70;81.46;102423.66;1789334;80;21887;-84
2021/03/06 03:23:11;;;;;;;11.38;4.67;;;;;;;-2.72;81.55;102428.69;1789659;80;21549;-83
2021/03/06 03:25:38;;;;;;;8.70;4.08;;;;;;;-2.71;81.56;102429.59;1789537;80;21168;-83
2021/03/06 03:28:05;;;;;;;7.17;3.75;;;;;;;-2.74;81.53;102432.39;1789674;80;21134;-83
2021/03/06 03:30:33;;;;;;;9.43;4.42;;;;;;;-2.75;81.62;102434.80;1759244;80;21819;-83
2021/03/06 03:33:00;;;;;;;10.35;4.70;;;;;;;-2.77;81.57;102441.07;1789696;79;23296;-84
2021/03/06 03:35:27;;;;;;;11.08;5.25;;;;;;;-2.80;81.54;102437.25;1789663;80;21150;-83
2021/03/06 03:37:55;;;;;;;12.78;4.72;;;;;;;-2.83;81.48;102439.14;1789724;80;21222;-84
2021/03/06 03:40:22;;;;;;;13.72;6.10;;;;;;;-2.87;81.42;102438.29;1789803;80;21120;-84
2021/03/06 03:42:49;;;;;;;11.95;6.00;;;;;;;-2.88;81.51;102438.12;1789854;80;21361;-84
2021/03/06 03:45:18;;;;;;;13.90;6.17;;;;;;;-2.89;81.45;102432.41;1789601;80;22907;-85
2021/03/06 03:47:45;;;;;;;12.85;5.50;;;;;;;-2.92;81.54;102437.27;1789314;80;21678;-90
2021/03/06 03:50:14;;;;;;;11.45;5.60;;;;;;;-2.94;81.53;102436.71;1789434;80;21115;-89
2021/03/06 03:52:48;;;;;;;13.50;6.70;;;;;;;-2.97;81.54;102436.38;1789388;80;21127;-89
2021/03/06 03:55:15;;;;;;;;;;;;;;;-2.99;81.56;102437.88;1792071;80;21089;-89
2021/03/06 03:57:46;;;;;;;13.35;6.42;;;;;;;-3.05;81.41;102442.77;1789455;80;21786;-89
2021/03/06 04:00:16;;;;;;;11.28;6.25;;;;;;;-3.09;81.49;102438.05;1789327;79;21155;-90
2021/03/06 04:02:44;;;;;;;15.28;6.70;;;;;;;-3.13;81.44;102437.71;1789319;80;21139;-84
2021/03/06 04:05:11;;;;;;;14.68;6.67;;;;;;;-3.15;81.56;102435.73;1789124;80;21538;-84
2021/03/06 04:07:49;;;;;;;19.92;7.37;;;;;;;-3.17;81.61;102434.66;1789461;80;21150;-90
2021/03/06 04:10:18;;;;;;;16.95;7.37;;;;;;;-3.20;81.75;102433.94;1789320;80;21938;-89
2021/03/06 04:12:46;;;;;;;13.43;6.65;;;;;;;-3.22;81.83;102438.01;1789238;80;21179;-91
2021/03/06 04:15:15;;;;;;;13.43;6.70;;;;;;;-3.20;82.05;102439.47;1789460;80;21547;-88
2021/03/06 04:17:51;;;;;;;16.32;6.97;;;;;;;-3.21;82.05;102432.48;1789459;80;21155;-89
2021/03/06 04:20:23;;;;;;;18.23;6.90;;;;;;;-3.22;82.18;102435.44;1788567;80;21139;-88
2021/03/06 04:22:50;;;;;;;13.40;6.65;;;;;;;-3.21;82.30;102435.05;1789478;80;22787;-89
2021/03/06 04:25:18;;;;;;;12.20;5.80;;;;;;;-3.20;82.33;102433.03;1789395;80;21206;-83
2021/03/06 04:27:45;;;;;;;15.48;6.30;;;;;;;-3.20;82.44;102433.94;1789146;80;21645;-84
2021/03/06 04:30:25;;;;;;;15.75;6.72;;;;;;;-3.19;82.55;102433.55;1789169;80;21135;-85
2021/03/06 04:32:55;;;;;;;11.63;6.40;;;;;;;-3.20;82.55;102434.31;1789387;79;21178;-84
2021/03/06 04:35:22;;;;;;;16.10;7.37;;;;;;;-3.19;82.68;102428.05;1794063;80;21683;-85
2021/03/06 04:37:50;;;;;;;15.35;6.92;;;;;;;-3.19;82.79;102427.11;1794997;80;21163;-88
2021/03/06 04:40:31;;;;;;;11.88;6.20;;;;;;;-3.17;82.93;102432.08;1795256;80;21172;-89
2021/03/06 04:43:05;;;;;;;18.23;7.15;;;;;;;-3.16;83.05;102433.50;1795286;80;21064;-88
2021/03/06 04:45:32;;;;;;;12.60;6.85;;;;;;;-3.14;83.16;102441.02;1795466;80;21191;-89
2021/03/06 04:47:59;;;;;;;15.45;6.78;;;;;;;-3.11;83.25;102431.83;1795341;80;21964;-89
2021/03/06 04:50:26;;;;;;;12.80;6.67;;;;;;;-3.08;83.30;102437.28;1795205;80;21159;-88
2021/03/06 04:52:53;;;;;;;11.70;6.22;;;;;;;-3.07;83.34;102441.31;1795637;80;21171;-89
2021/03/06 04:55:20;;;;;;;11.22;6.58;;;;;;;-3.07;83.25;102433.97;1794978;80;21171;-87
2021/03/06 04:57:48;;;;;;;15.10;6.30;;;;;;;-3.07;83.24;102434.88;1794926;80;21202;-86
2021/03/06 05:00:17;;;;;;;12.47;5.67;;;;;;;-3.08;83.25;102433.42;1795015;80;21884;-83
2021/03/06 05:02:44;;;;;;;10.95;5.22;;;;;;;-3.09;83.25;102437.66;1794913;80;21144;-84
2021/03/06 05:05:12;;;;;;;16.12;6.78;;;;;;;-3.09;83.35;102435.09;1794961;80;21154;-84
2021/03/06 05:07:44;;;;;;;12.98;5.70;;;;;;;-3.06;83.35;102435.78;1794934;80;21142;-84
2021/03/06 05:10:14;;;;;;;9.50;5.22;;;;;;;-3.06;83.48;102436.72;1794882;79;21537;-84
2021/03/06 05:12:41;;;;;;;9.18;6.00;;;;;;;-3.03;83.48;102434.83;1794799;80;21871;-84
2021/03/06 05:15:18;;;;;;;11.85;5.95;;;;;;;-3.03;83.50;102440.88;1794747;80;21644;-83
2021/03/06 05:17:47;;;;;;;15.08;6.08;;;;;;;-3.02;83.53;102441.44;1794906;80;21147;-84
2021/03/06 05:20:15;;;;;;;15.25;6.28;;;;;;;-3.01;83.57;102436.80;1794957;80;21092;-83
2021/03/06 05:22:42;;;;;;;10.08;6.20;;;;;;;-2.99;83.60;102439.16;1794966;78;21151;-85
2021/03/06 05:25:11;;;;;;;16.85;6.12;;;;;;;-2.96;83.63;102434.73;1795053;80;21896;-87
2021/03/06 05:27:39;;;;;;;11.33;5.62;;;;;;;-2.96;83.51;102432.16;1794912;80;21222;-84
2021/03/06 05:30:07;;;;;;;16.95;5.95;;;;;;;-2.95;83.56;102433.97;1797237;78;21494;-84
2021/03/06 05:32:34;;;;;;;13.75;6.53;;;;;;;-2.93;83.60;102432.46;1808751;78;21576;-91
2021/03/06 05:35:02;;;;;;;15.85;7.20;;;;;;;-2.91;83.55;102426.19;1801472;77;21071;-92
2021/03/06 05:37:29;;;;;;;12.58;6.28;;;;;;;-2.89;83.57;102426.91;1795840;79;21959;-91
2021/03/06 05:39:56;;;;;;;14.18;6.12;;;;;;;-2.86;83.57;102428.50;1795861;79;21115;-90
2021/03/06 05:42:23;;;;;;;13.68;6.83;;;;;;;-2.82;83.60;102429.74;1795892;79;21143;-91
2021/03/06 05:44:52;;;;;;;11.40;5.85;;;;;;;-2.79;83.60;102423.63;1795855;79;21139;-91
2021/03/06 05:47:19;;;;;;;14.58;6.08;;;;;;;-2.72;83.67;102427.75;1796170;79;21140;-92
2021/03/06 05:49:46;;;;;;;16.42;7.85;;;;;;;-2.69;83.61;102421.64;1795815;79;21879;-93
2021/03/06 05:52:17;;;;;;;13.30;7.40;;;;;;;-2.65;83.67;102427.64;1795836;79;21116;-92
2021/03/06 05:54:48;;;;;;;16.85;7.00;;;;;;;-2.61;83.76;102425.56;1795457;79;21144;-93
2021/03/06 05:57:18;;;;;;;13.20;7.12;;;;;;;-2.55;83.75;102423.63;1795188;79;21104;-91
2021/03/06 05:59:45;;;;;;;12.70;6.97;;;;;;;-2.48;83.78;102425.54;1795621;79;21127;-91
2021/03/06 06:02:15;;;;;;;14.35;6.60;;;;;;;-2.43;83.75;102430.42;1796058;79;21891;-86
2021/03/06 06:04:43;;;;;;;14.43;7.55;;;;;;;-2.37;83.80;102430.14;1770444;79;21142;-92
2021/03/06 06:07:18;;;;;;;13.20;7.08;;;;;;;-2.30;83.84;102430.03;1795783;79;21609;-92
2021/03/06 06:09:45;;;;;;;10.78;6.33;;;;;;;-2.23;83.84;102429.02;1794466;79;21167;-84
2021/03/06 06:12:12;;;;;;;13.65;6.83;;;;;;;-2.15;83.82;102430.70;1794988;79;21127;-85
2021/03/06 06:14:40;;;;;;;12.47;6.33;;;;;;;-2.09;83.81;102434.29;1794963;79;21896;-87
2021/03/06 06:17:08;;;;;;;11.70;6.58;;;;;;;-2.03;83.82;102430.66;1794830;79;21640;-83
2021/03/06 06:19:36;;;;;;;16.17;7.85;;;;;;;-1.96;83.84;102435.69;1794793;78;21191;-87
2021/03/06 06:22:23;;;;;;;12.60;6.78;;;;;;;-1.86;83.89;102444.38;1795144;78;21114;-87
2021/03/06 06:24:52;;;;;;;15.48;6.50;;;;;;;-1.81;83.83;102442.80;1772942;79;21218;-87
2021/03/06 06:27:29;;;;;;;12.45;6.50;;;;;;;-1.72;83.84;102445.41;1768196;79;21581;-84
2021/03/06 06:29:58;;;;;;;14.40;6.45;;;;;;;-1.66;83.82;102447.70;1795066;79;21620;-86
2021/03/06 06:32:43;;;;;;;11.85;6.50;;;;;;;-1.57;83.85;102444.76;1795513;79;21127;-85
2021/03/06 06:35:16;;;;;;;13.70;7.47;;;;;;;-1.49;83.87;102455.47;1791898;79;21111;-86
2021/03/06 06:38:06;;;;;;;16.67;7.30;;;;;;;-1.40;83.81;102454.20;1789381;80;21128;-86
2021/03/06 06:40:37;;;;;;;11.75;6.95;;;;;;;-1.32;83.77;102455.87;1789134;80;21842;-86
2021/03/06 06:43:25;;;;;;;14.28;7.15;;;;;;;-1.24;83.73;102453.69;1789230;80;21585;-86
2021/03/06 06:45:52;;;;;;;13.70;7.25;;;;;;;-1.13;83.76;102453.83;1788963;80;21583;-85
2021/03/06 06:48:19;;;;;;;16.17;7.95;;;;;;;-1.03;83.70;102452.31;1788673;80;21661;-86
2021/03/06 06:50:46;;;;;;;11.18;7.70;;;;;;;-0.93;83.67;102455.81;1788936;80;21127;-84
2021/03/06 06:53:26;;;;;;;16.95;6.97;;;;;;;-0.84;83.63;102456.33;1758471;80;22956;-84
2021/03/06 06:55:53;;;;;;;12.70;7.58;;;;;;;-0.70;83.81;102456.77;1788467;78;21183;-86
2021/03/06 06:58:34;;;;;;;12.88;6.72;;;;;;;-0.59;83.62;102457.43;1789062;80;21178;-87
2021/03/06 07:01:03;;;;;;;12.55;6.33;;;;;;;-0.50;83.57;102458.33;1788381;80;21264;-83
2021/03/06 07:03:31;;;;;;;10.65;6.60;;;;;;;-0.36;83.54;102461.33;1780405;80;22449;-84
2021/03/06 07:05:58;;;;;;;14.90;7.25;;;;;;;-0.26;83.58;102467.55;1829001;77;21191;-84
2021/03/06 07:08:26;;;;;;;17.45;7.55;;;;;;;-0.15;83.58;102463.41;1788905;80;21173;-83
2021/03/06 07:10:53;;;;;;;16.90;8.45;;;;;;;-0.05;83.57;102462.20;1801560;78;21220;-84
2021/03/06 07:13:20;;;;;;;22.65;9.13;;;;;;;0.07;83.58;102465.03;1821311;78;21135;-85
2021/03/06 07:15:53;;;;;;;20.48;10.50;;;;;;;0.17;83.50;102465.55;1821540;78;21120;-93
2021/03/06 07:18:20;;;;;;;18.30;9.03;;;;;;;0.28;83.45;102470.42;1821747;78;22947;-89
2021/03/06 07:20:49;;;;;;;16.80;9.48;;;;;;;0.36;83.50;102468.19;1821922;78;21147;-91
2021/03/06 07:23:25;;;;;;;17.85;8.78;;;;;;;0.46;83.42;102478.63;1821988;78;21171;-88
2021/03/06 07:25:57;;;;;;;15.70;8.00;;;;;;;0.53;83.42;102473.25;1821930;76;21235;-90
2021/03/06 07:28:24;;;;;;;14.93;7.53;;;;;;;0.61;83.37;102468.77;1821215;78;21147;-86
2021/03/06 07:30:52;;;;;;;17.48;7.25;;;;;;;0.70;83.42;102468.73;1821994;78;21962;-87
2021/03/06 07:33:19;;;;;;;11.70;6.60;;;;;;;0.74;83.33;102473.41;1821555;78;21139;-89
2021/03/06 07:35:47;;;;;;;14.90;7.10;;;;;;;0.73;83.19;102469.92;1823568;77;21119;-89
2021/03/06 07:38:18;;;;;;;15.38;8.38;;;;;;;0.74;83.15;102465.64;1792754;78;21201;-90
2021/03/06 07:41:00;;;;;;;15.28;7.78;;;;;;;0.76;83.12;102466.69;1792452;80;21573;-88
2021/03/06 07:43:37;;;;;;;14.50;7.50;;;;;;;0.77;83.15;102456.47;1792461;78;21891;-88
2021/03/06 07:46:04;;;;;;;15.28;7.70;;;;;;;0.81;83.09;102455.43;1792599;80;21183;-89
2021/03/06 07:48:36;;;;;;;15.88;8.13;;;;;;;0.82;83.08;102452.98;1793272;80;21171;-90
2021/03/06 07:51:04;;;;;;;13.70;7.75;;;;;;;0.87;83.10;102457.31;1793206;80;21138;-88
2021/03/06 07:53:31;;;;;;;14.93;8.23;;;;;;;0.88;83.02;102457.45;1792877;80;21236;-88
2021/03/06 07:55:58;;;;;;;13.32;7.70;;;;;;;0.92;83.06;102453.43;1792832;80;21883;-88
2021/03/06 07:58:25;;;;;;;14.75;6.37;;;;;;;0.99;83.06;102453.62;1737923;80;21157;-88
2021/03/06 08:00:57;;;;;;;15.28;8.13;;;;;;;1.04;82.99;102453.66;1792815;80;21133;-89
2021/03/06 08:03:30;;;;;;;11.03;6.65;;;;;;;1.10;82.76;102455.50;1793105;80;21152;-88
2021/03/06 08:06:03;;;;;;;15.98;7.05;;;;;;;1.14;82.68;102458.50;1792802;77;21108;-90
2021/03/06 08:08:44;;;;;;;14.55;7.72;;;;;;;1.21;82.53;102453.48;1792900;80;21989;-89
2021/03/06 08:11:16;;;;;;;13.18;8.08;;;;;;;1.27;82.53;102446.25;1792950;80;21107;-91
2021/03/06 08:13:57;;;;;;;13.80;8.28;;;;;;;1.35;82.42;102444.34;1792632;80;21214;-89
2021/03/06 08:16:34;;;;;;;18.32;11.00;;;;;;;1.44;82.30;102440.36;1792531;80;21159;-91
2021/03/06 08:19:10;;;;;;;12.55;6.80;;;;;;;1.50;82.03;102431.45;1792719;80;21107;-92
2021/03/06 08:21:47;;;;;;;12.13;6.83;;;;;;;1.57;81.79;102429.00;1790397;80;21898;-92
2021/03/06 08:24:21;;;;;;;12.33;6.40;;;;;;;1.65;81.55;102432.27;1792749;80;21127;-91
2021/03/06 08:27:09;;;;;;;13.48;6.92;;;;;;;1.71;81.43;102423.73;1812153;78;21582;-94
2021/03/06 08:29:43;;;;;;;13.58;6.50;;;;;;;1.80;81.35;102423.61;1811569;78;21147;-91
2021/03/06 08:32:27;;;;;;;12.33;5.90;;;;;;;1.88;81.06;102427.80;1793100;78;21122;-92
2021/03/06 08:35:01;;;;;;;9.38;5.80;;;;;;;1.94;80.92;102429.63;1790176;78;21964;-92
2021/03/06 08:37:30;;;;;;;12.63;6.08;;;;;;;2.01;80.73;102420.30;1786621;78;21178;-93
2021/03/06 08:40:07;;;;;;;15.53;6.53;;;;;;;2.08;80.58;102416.52;1789569;80;21116;-91
2021/03/06 08:42:40;;;;;;;11.43;5.83;;;;;;;2.14;80.59;102415.77;1789060;80;21206;-92
2021/03/06 08:45:17;;;;;;;9.73;4.75;;;;;;;2.22;80.25;102417.33;1789295;77;21182;-92
2021/03/06 08:47:54;;;;;;;11.43;5.53;;;;;;;2.29;79.93;102415.77;1789476;80;21880;-92
2021/03/06 08:50:22;;;;;;;10.95;5.50;;;;;;;2.37;79.67;102407.72;1789930;80;21194;-92
2021/03/06 08:52:57;;;;;;;9.58;5.50;;;;;;;2.44;79.24;102410.97;1789581;77;21171;-92
2021/03/06 08:55:28;;;;;;;14.90;6.78;;;;;;;2.52;79.08;102409.91;1788881;80;21648;-93
2021/03/06 08:57:55;;;;;;;11.95;5.78;;;;;;;2.60;78.50;102410.55;1790276;78;21665;-93
2021/03/06 09:00:32;;;;;;;11.53;4.67;;;;;;;2.68;78.30;102404.69;1775956;79;22872;-93
2021/03/06 09:03:15;;;;;;;11.48;5.12;;;;;;;2.77;78.06;102405.86;1818072;79;21192;-92
2021/03/06 09:05:50;;;;;;;9.95;4.25;;;;;;;2.84;77.90;102408.19;1817831;78;21125;-90
2021/03/06 09:08:21;;;;;;;8.50;4.30;;;;;;;2.91;77.36;102404.91;1817782;79;21160;-92
2021/03/06 09:10:49;;;;;;;8.85;4.40;;;;;;;2.98;77.09;102401.51;1818010;79;21173;-92
2021/03/06 09:13:19;;;;;;;8.63;4.58;;;;;;;3.04;76.85;102400.70;1818034;78;21951;-91
2021/03/06 09:16:00;;;;;;;11.60;3.77;;;;;;;3.10;76.42;102402.53;1818054;78;21129;-92
2021/03/06 09:18:34;;;;;;;7.60;3.98;;;;;;;3.16;76.09;102398.22;1817832;79;21171;-93
2021/03/06 09:21:15;;;;;;;7.55;3.72;;;;;;;3.21;75.55;102398.17;1818079;79;21177;-92
2021/03/06 09:23:44;;;;;;;7.25;3.70;;;;;;;3.24;75.14;102394.12;1818005;79;21109;-92
2021/03/06 09:26:17;;;;;;;6.67;3.55;;;;;;;3.28;75.03;102394.92;1817752;79;21894;-92
2021/03/06 09:28:46;;;;;;;6.17;3.47;;;;;;;3.33;74.80;102401.78;1817626;78;21235;-93
2021/03/06 09:31:24;;;;;;;7.35;3.25;;;;;;;3.39;74.29;102400.06;1816567;79;21153;-92
2021/03/06 09:33:50;;;;;;;6.78;2.55;;;;;;;3.42;74.00;102395.12;1750690;82;21159;-93
2021/03/06 09:36:21;;;;;;;9.33;3.17;;;;;;;3.46;73.30;102388.06;1753984;81;21536;-88
2021/03/06 09:38:57;;;;;;;12.70;4.00;;;;;;;3.50;73.42;102385.81;1750451;82;21905;-93
2021/03/06 09:41:38;;;;;;;6.22;3.15;;;;;;;3.55;73.09;102389.17;1754139;81;21560;-93
2021/03/06 09:44:06;;;;;;;5.53;2.92;;;;;;;3.58;72.51;102380.31;1750398;82;21136;-94
2021/03/06 09:46:35;;;;;;;5.00;3.27;;;;;;;3.62;72.28;102385.91;1754131;78;21575;-90
2021/03/06 09:49:14;;;;;;;6.22;2.45;;;;;;;3.66;72.12;102382.75;1750763;82;21208;-93
2021/03/06 09:51:52;;;;;;;4.53;2.95;;;;;;;3.72;71.81;102377.11;1754054;81;21965;-92
2021/03/06 09:54:24;;;;;;;2.47;1.87;;;;;;;3.76;70.97;102383.07;1750703;81;21226;-87
2021/03/06 09:56:56;;;;;;;5.35;2.17;;;;;;;3.80;70.60;102377.72;1754266;81;21153;-92
2021/03/06 09:59:25;;;;;;;6.28;3.12;;;;;;;3.83;70.18;102375.33;1751089;82;21184;-94
2021/03/06 10:01:52;;;;;;;4.97;2.83;;;;;;;3.87;70.27;102372.20;1754984;81;21137;-94
2021/03/06 10:04:24;;;;;;;4.65;2.95;;;;;;;3.90;70.24;102372.42;1751406;82;21910;-93
2021/03/06 10:06:55;;;;;;;6.87;3.00;;;;;;;3.96;70.26;102372.92;1755070;81;21328;-93
2021/03/06 10:09:24;;;;;;;6.83;3.55;;;;;;;4.00;69.99;102368.45;1751112;82;21153;-94
2021/03/06 10:11:55;;;;;;;9.23;5.03;;;;;;;4.03;69.74;102372.98;1754388;81;21310;-94
2021/03/06 10:14:24;;;;;;;9.68;4.15;;;;;;;4.07;69.74;102369.81;1751129;81;23059;-89
2021/03/06 10:16:56;;;;;;;10.53;3.00;;;;;;;4.13;69.70;102363.80;1755271;81;21964;-93
2021/03/06 10:19:27;;;;;;;4.03;2.20;;;;;;;4.19;69.25;102369.47;1751953;82;21176;-92
2021/03/06 10:22:01;;;;;;;4.72;2.95;;;;;;;4.24;68.83;102372.05;1754240;81;21176;-92
2021/03/06 10:24:29;;;;;;;3.58;2.20;;;;;;;4.30;68.77;102362.48;1751269;82;21145;-93
2021/03/06 10:27:01;;;;;;;5.42;2.27;;;;;;;4.44;68.58;102364.82;1755345;81;21214;-92
2021/03/06 10:29:31;;;;;;;5.45;2.17;;;;;;;4.57;68.38;102349.70;1751326;82;21897;-93
2021/03/06 10:32:01;;;;;;;4.28;1.70;;;;;;;4.66;67.99;102351.70;1754438;81;21571;-93
2021/03/06 10:34:31;;;;;;;2.75;2.10;;;;;;;4.70;67.46;102347.22;1750584;82;21188;-93
2021/03/06 10:37:18;;;;;;;7.55;2.25;;;;;;;4.73;67.21;102350.06;1745847;81;21580;-93
2021/03/06 10:40:03;;;;;;;3.80;1.85;;;;;;;4.75;66.87;102337.11;1731323;82;21164;-93
2021/03/06 10:42:50;;;;;;;6.62;1.87;;;;;;;4.75;66.25;102322.77;1743055;79;21908;-93
2021/03/06 10:45:28;;;;;;;6.72;1.75;;;;;;;4.72;66.13;102337.80;1731451;82;21629;-92
2021/03/06 10:48:08;;;;;;;5.33;2.02;;;;;;;4.71;65.90;102331.16;1742912;82;21623;-93
2021/03/06 10:50:39;;;;;;;3.95;2.05;;;;;;;4.71;65.42;102331.16;1731481;81;21128;-92
2021/03/06 10:53:19;;;;;;;5.03;1.90;;;;;;;4.72;64.83;102330.38;1723308;80;21150;-92
2021/03/06 10:55:56;;;;;;;2.75;1.72;;;;;;;4.80;64.79;102326.22;1822640;77;22448;-85
2021/03/06 10:58:47;;;;;;;3.02;1.75;;;;;;;4.78;64.59;102325.20;1784367;78;21117;-85
2021/03/06 11:01:16;;;;;;;4.70;2.50;;;;;;;4.77;64.31;102322.11;1782536;78;23518;-82
2021/03/06 11:03:46;;;;;;;5.67;2.08;;;;;;;4.81;64.22;102324.55;1776192;78;21181;-82
2021/03/06 11:06:14;;;;;;;5.53;2.22;;;;;;;4.82;63.96;102327.27;1764787;81;21163;-82
2021/03/06 11:08:41;;;;;;;3.12;1.60;;;;;;;4.84;63.67;102320.46;1765191;81;21610;-83
2021/03/06 11:11:10;;;;;;;4.10;1.98;;;;;;;4.86;63.48;102308.43;1770595;79;21102;-84
2021/03/06 11:13:43;;;;;;;7.72;4.83;;;;;;;4.74;63.55;102286.65;1782535;79;22089;-82
2021/03/06 11:16:11;;;;;;;5.12;2.37;;;;;;;4.92;63.58;102310.58;1789822;79;21140;-82
2021/03/06 11:18:43;;;;;;;3.02;1.82;;;;;;;4.95;63.35;102299.04;1785515;79;21156;-83
2021/03/06 11:21:13;;;;;;;4.60;2.00;;;;;;;4.96;63.15;102289.12;1773262;79;21173;-82
2021/03/06 11:23:41;;;;;;;4.15;1.85;;;;;;;4.96;63.05;102282.60;1789432;79;21160;-82
2021/03/06 11:26:08;;;;;;;3.62;1.32;;;;;;;4.98;62.88;102278.80;1782978;79;21919;-83
2021/03/06 11:28:35;;;;;;;6.20;1.72;;;;;;;4.99;62.49;102285.81;1776158;79;21137;-84
2021/03/06 11:31:04;;;;;;;3.02;1.92;;;;;;;5.00;62.38;102272.89;1761568;80;21657;-83
2021/03/06 11:33:31;;;;;;;5.22;1.70;;;;;;;5.04;62.09;102277.52;1757350;81;21140;-83
2021/03/06 11:35:58;;;;;;;2.72;1.40;;;;;;;5.06;61.74;102261.98;1778538;80;21279;-82
2021/03/06 11:38:26;;;;;;;3.83;2.22;;;;;;;5.09;61.42;102261.28;1788841;80;21896;-84
2021/03/06 11:40:54;;;;;;;4.97;2.75;;;;;;;5.10;60.86;102255.28;1788446;80;21192;-84
2021/03/06 11:43:24;;;;;;;4.20;2.00;;;;;;;5.09;60.87;102249.16;1788434;80;21207;-83
2021/03/06 11:45:52;;;;;;;4.70;2.47;;;;;;;5.10;60.93;102244.84;1788498;80;21235;-83
2021/03/06 11:48:19;;;;;;;4.15;2.33;;;;;;;5.16;60.93;102244.89;1788777;80;21159;-83
2021/03/06 11:50:48;;;;;;;3.75;1.90;;;;;;;5.21;60.82;102242.18;1788483;80;21889;-83